createdAt,value
2022-08-11T00:01:54.468Z,1.00
2022-08-11T00:04:25.154Z,1.00
2022-08-11T00:06:53.411Z,1.00
2022-08-11T00:09:23.026Z,1.00
2022-08-11T00:11:58.688Z,1.00
2022-08-11T00:14:37.062Z,1.00
2022-08-11T00:17:10.934Z,1.00
2022-08-11T00:20:12.616Z,1.00
2022-08-11T00:22:40.496Z,1.00
2022-08-11T00:25:21.694Z,1.00
2022-08-11T00:27:49.479Z,1.00
2022-08-11T00:30:17.798Z,1.00
2022-08-11T00:32:55.346Z,1.00
2022-08-11T00:35:56.997Z,1.00
2022-08-11T00:38:16.010Z,1.00
2022-08-11T00:40:55.087Z,1.00
2022-08-11T00:43:57.231Z,1.00
2022-08-11T00:46:27.421Z,1.00
2022-08-11T00:49:12.133Z,1.00
2022-08-11T00:52:10.249Z,1.00
2022-08-11T00:54:58.573Z,1.00
2022-08-11T00:57:47.801Z,1.00
2022-08-11T01:00:43.794Z,1.00
2022-08-11T01:03:51.459Z,5.70
2022-08-11T01:06:43.148Z,1.00
2022-08-11T01:09:25.147Z,1.30
2022-08-11T01:12:29.531Z,8.70
2022-08-11T01:15:40.239Z,1.20
2022-08-11T01:18:44.819Z,1.00
2022-08-11T01:21:49.654Z,1.00
2022-08-11T01:24:45.532Z,1.00
2022-08-11T01:27:43.810Z,1.00
2022-08-11T01:30:39.264Z,1.00
2022-08-11T01:33:25.112Z,1.00
2022-08-11T01:36:29.604Z,1.00
2022-08-11T01:38:59.871Z,1.00
2022-08-11T01:42:06.890Z,1.00
2022-08-11T01:44:44.066Z,1.00
2022-08-11T01:47:34.090Z,1.00
2022-08-11T01:50:10.704Z,1.00
2022-08-11T01:53:05.048Z,1.00
2022-08-11T01:55:48.810Z,1.00
2022-08-11T01:58:29.354Z,1.00
2022-08-11T02:01:38.093Z,1.00
2022-08-11T02:04:14.230Z,1.00
2022-08-11T02:06:58.508Z,1.00
2022-08-11T02:10:36.575Z,1.40
2022-08-11T02:13:36.850Z,1.00
2022-08-11T02:16:27.208Z,1.00
2022-08-11T02:19:35.963Z,1.00
2022-08-11T02:22:35.022Z,1.00
2022-08-11T02:25:07.757Z,1.00
2022-08-11T02:27:50.074Z,1.00
2022-08-11T02:30:25.075Z,1.00
2022-08-11T02:33:16.421Z,1.80
2022-08-11T02:35:47.803Z,2.90
2022-08-11T02:38:21.910Z,6.00
2022-08-11T02:41:43.494Z,6.30
2022-08-11T02:44:33.843Z,8.00
2022-08-11T02:47:38.762Z,12.20
2022-08-11T02:50:17.533Z,14.50
2022-08-11T02:52:52.469Z,5.50
2022-08-11T02:55:57.057Z,5.80
2022-08-11T02:59:12.782Z,9.00
2022-08-11T03:01:48.488Z,7.90
2022-08-11T03:04:37.461Z,14.40
2022-08-11T03:07:35.029Z,20.10
2022-08-11T03:10:30.676Z,19.20
2022-08-11T03:13:47.975Z,6.90
2022-08-11T03:16:45.805Z,13.80
2022-08-11T03:19:18.547Z,10.50
2022-08-11T03:22:08.306Z,6.90
2022-08-11T03:25:04.153Z,12.30
2022-08-11T03:27:39.310Z,9.80
2022-08-11T03:30:26.529Z,13.60
2022-08-11T03:33:34.571Z,14.50
2022-08-11T03:36:20.087Z,4.40
2022-08-11T03:38:52.831Z,9.20
2022-08-11T03:42:02.059Z,4.90
2022-08-11T03:44:37.776Z,5.00
2022-08-11T03:47:33.215Z,6.20
2022-08-11T03:50:20.071Z,7.20
2022-08-11T03:53:06.636Z,1.00
2022-08-11T03:56:19.034Z,1.00
2022-08-11T03:59:12.517Z,1.00
2022-08-11T04:01:49.124Z,1.00
2022-08-11T04:04:19.270Z,1.00
2022-08-11T04:07:23.433Z,1.00
2022-08-11T04:10:07.848Z,1.00
2022-08-11T04:13:19.800Z,99.90
2022-08-11T04:16:12.542Z,99.90
2022-08-11T04:18:42.724Z,1.00
2022-08-11T04:21:47.278Z,99.90
2022-08-11T04:24:36.972Z,99.90
2022-08-11T04:27:43.168Z,99.90
2022-08-11T04:30:27.430Z,99.90
2022-08-11T04:33:03.203Z,99.90
2022-08-11T04:36:09.671Z,99.90
2022-08-11T04:39:08.752Z,99.90
2022-08-11T04:42:35.373Z,99.90
2022-08-11T04:46:04.516Z,99.90
2022-08-11T04:49:33.345Z,99.90
2022-08-11T04:52:37.777Z,99.90
2022-08-11T04:55:39.295Z,99.90
2022-08-11T04:58:56.096Z,99.90
2022-08-11T05:01:41.249Z,99.90
2022-08-11T05:05:30.906Z,99.90
2022-08-11T05:08:27.970Z,99.90
2022-08-11T05:11:30.316Z,99.90
2022-08-11T05:14:31.422Z,99.90
2022-08-11T05:17:31.275Z,99.90
2022-08-11T05:20:19.639Z,99.90
2022-08-11T05:23:10.631Z,99.90
2022-08-11T05:26:25.414Z,99.90
2022-08-11T05:29:21.396Z,99.90
2022-08-11T05:32:15.493Z,99.90
2022-08-11T05:34:54.245Z,99.90
2022-08-11T05:37:32.895Z,99.90
2022-08-11T05:40:27.093Z,99.90
2022-08-11T05:43:24.791Z,99.90
2022-08-11T05:46:18.728Z,99.90
2022-08-11T05:49:05.853Z,99.90
2022-08-11T05:52:05.517Z,99.90
2022-08-11T05:55:06.330Z,99.90
2022-08-11T05:57:50.424Z,99.90
2022-08-11T06:00:19.996Z,99.90
2022-08-11T06:02:54.761Z,99.90
2022-08-11T06:05:37.316Z,99.90
2022-08-11T06:08:12.361Z,99.90
2022-08-11T06:10:42.274Z,99.90
2022-08-11T06:13:10.911Z,99.90
2022-08-11T06:15:49.887Z,99.90
2022-08-11T06:18:18.164Z,99.90
2022-08-11T06:20:58.234Z,99.90
2022-08-11T06:23:32.074Z,99.90
2022-08-11T06:26:00.316Z,99.90
2022-08-11T06:28:37.447Z,99.90
2022-08-11T06:31:20.240Z,99.90
2022-08-11T06:33:50.498Z,99.90
2022-08-11T06:36:31.171Z,99.90
2022-08-11T06:39:44.195Z,99.90
2022-08-11T06:42:24.605Z,99.90
2022-08-11T06:44:58.388Z,99.90
2022-08-11T06:47:26.303Z,99.90
2022-08-11T06:50:16.731Z,99.90
2022-08-11T06:52:46.903Z,99.90
2022-08-11T06:55:56.898Z,99.90
2022-08-11T06:59:06.953Z,99.90
2022-08-11T07:02:01.898Z,99.90
2022-08-11T07:04:43.230Z,99.90
2022-08-11T07:08:33.153Z,99.90
2022-08-11T07:11:43.444Z,99.90
2022-08-11T07:14:35.044Z,99.90
2022-08-11T07:17:11.214Z,99.90
2022-08-11T07:20:02.149Z,99.90
2022-08-11T07:22:51.075Z,99.90
2022-08-11T07:25:37.825Z,99.90
2022-08-11T07:28:44.339Z,99.90
2022-08-11T07:31:21.949Z,99.90
2022-08-11T07:34:05.516Z,99.90
2022-08-11T07:36:41.124Z,99.90
2022-08-11T07:39:15.790Z,99.90
2022-08-11T07:41:43.779Z,99.90
2022-08-11T07:44:11.705Z,99.90
2022-08-11T07:47:11.046Z,99.90
2022-08-11T07:49:59.118Z,99.90
2022-08-11T07:52:33.957Z,99.90
2022-08-11T07:55:05.091Z,99.90
2022-08-11T07:58:11.154Z,99.90
2022-08-11T08:01:25.008Z,99.90
2022-08-11T08:04:11.078Z,99.90
2022-08-11T08:06:57.725Z,99.90
2022-08-11T08:09:44.075Z,99.90
2022-08-11T08:12:31.559Z,99.90
2022-08-11T08:15:18.054Z,99.90
2022-08-11T08:18:09.721Z,99.90
2022-08-11T08:20:52.148Z,99.90
2022-08-11T08:23:33.758Z,99.90
2022-08-11T08:26:04.734Z,99.90
2022-08-11T08:28:33.778Z,99.90
2022-08-11T08:31:02.447Z,99.90
2022-08-11T08:33:32.141Z,99.90
2022-08-11T08:36:17.035Z,99.90
2022-08-11T08:38:51.282Z,99.90
2022-08-11T08:41:38.515Z,99.90
2022-08-11T08:44:36.763Z,99.90
2022-08-11T08:46:59.961Z,99.90
2022-08-11T08:49:41.962Z,99.90
2022-08-11T08:52:26.296Z,99.90
2022-08-11T08:55:04.772Z,99.90
2022-08-11T08:57:39.223Z,99.90
2022-08-11T09:00:07.731Z,99.90
2022-08-11T09:02:37.580Z,99.90
2022-08-11T09:05:05.763Z,99.90
2022-08-11T09:07:38.524Z,99.90
2022-08-11T09:10:08.410Z,99.90
2022-08-11T09:12:38.716Z,99.90
2022-08-11T09:15:10.170Z,99.90
2022-08-11T09:17:44.893Z,99.90
2022-08-11T09:20:24.717Z,99.90
2022-08-11T09:26:21.949Z,99.90
2022-08-11T09:28:59.031Z,99.90
2022-08-11T09:31:27.015Z,99.90
2022-08-11T09:33:55.591Z,99.90
2022-08-11T09:36:41.683Z,99.90
2022-08-11T09:39:30.813Z,99.90
2022-08-11T09:42:03.399Z,99.90
2022-08-11T09:44:49.528Z,99.90
2022-08-11T09:47:26.150Z,99.90
2022-08-11T09:50:00.219Z,99.90
2022-08-11T09:52:32.491Z,99.90
2022-08-11T09:55:01.192Z,99.90
2022-08-11T09:57:48.527Z,99.90
2022-08-11T10:00:16.391Z,99.90
2022-08-11T10:02:47.282Z,99.90
2022-08-11T10:05:37.832Z,99.90
2022-08-11T10:08:07.520Z,99.90
2022-08-11T10:10:39.227Z,99.90
2022-08-11T10:14:30.673Z,99.90
2022-08-11T10:16:15.295Z,99.90
2022-08-11T10:18:52.764Z,99.90
2022-08-11T10:21:36.715Z,99.90
2022-08-11T10:24:24.716Z,99.90
2022-08-11T10:26:54.935Z,99.90
2022-08-11T10:29:49.744Z,99.90
2022-08-11T10:32:52.273Z,99.90
2022-08-11T10:35:32.154Z,99.90
2022-08-11T10:38:07.729Z,99.90
2022-08-11T10:40:40.705Z,99.90
2022-08-11T10:43:17.681Z,99.90
2022-08-11T10:46:25.772Z,99.90
2022-08-11T10:48:58.818Z,99.90
2022-08-11T10:51:50.867Z,99.90
2022-08-11T10:54:41.512Z,99.90
2022-08-11T10:57:29.081Z,99.90
2022-08-11T10:59:57.917Z,99.90
2022-08-11T11:02:31.296Z,99.90
2022-08-11T11:05:09.939Z,99.90
2022-08-11T11:07:49.804Z,99.90
2022-08-11T11:10:17.196Z,99.90
2022-08-11T11:13:04.697Z,99.90
2022-08-11T11:15:54.002Z,99.90
2022-08-11T11:18:21.454Z,99.90
2022-08-11T11:21:04.601Z,99.90
2022-08-11T11:23:41.658Z,99.90
2022-08-11T11:26:56.055Z,99.90
2022-08-11T11:29:42.027Z,99.90
2022-08-11T11:32:27.700Z,99.90
2022-08-11T11:35:18.161Z,99.90
2022-08-11T11:38:03.638Z,99.90
2022-08-11T11:40:33.185Z,99.90
2022-08-11T11:43:01.192Z,99.90
2022-08-11T11:45:28.621Z,99.90
2022-08-11T11:47:58.419Z,99.90
2022-08-11T11:50:36.572Z,99.90
2022-08-11T11:53:09.878Z,99.90
2022-08-11T11:55:37.955Z,99.90
2022-08-11T11:58:24.650Z,99.90
2022-08-11T12:01:12.495Z,99.90
2022-08-11T12:03:40.701Z,99.90
2022-08-11T12:06:09.639Z,99.90
2022-08-11T12:08:37.982Z,99.90
2022-08-11T12:11:29.200Z,99.90
2022-08-11T12:14:02.188Z,99.90
2022-08-11T12:16:34.220Z,99.90
2022-08-11T12:19:13.557Z,99.90
2022-08-11T12:22:01.153Z,99.90
2022-08-11T12:24:48.954Z,99.90
2022-08-11T12:27:24.842Z,99.90
2022-08-11T12:29:59.647Z,99.90
2022-08-11T12:32:32.728Z,99.90
2022-08-11T12:35:00.548Z,99.90
2022-08-11T12:37:31.648Z,99.90
2022-08-11T12:40:43.757Z,99.90
2022-08-11T12:43:39.535Z,99.90
2022-08-11T12:46:14.263Z,99.90
2022-08-11T12:49:04.941Z,99.90
2022-08-11T12:52:11.189Z,99.90
2022-08-11T12:54:57.869Z,99.90
2022-08-11T12:57:51.326Z,99.90
2022-08-11T13:00:39.345Z,99.90
2022-08-11T13:03:28.050Z,99.90
2022-08-11T13:06:02.918Z,99.90
2022-08-11T13:08:35.880Z,99.90
2022-08-11T13:11:23.045Z,99.90
2022-08-11T13:13:57.408Z,99.90
2022-08-11T13:16:57.183Z,99.90
2022-08-11T13:19:25.171Z,99.90
2022-08-11T13:21:53.653Z,99.90
2022-08-11T13:24:22.576Z,99.90
2022-08-11T13:26:52.455Z,99.90
2022-08-11T13:29:24.410Z,99.90
2022-08-11T13:31:58.687Z,99.90
2022-08-11T13:34:28.042Z,99.90
2022-08-11T13:36:59.440Z,99.90
2022-08-11T13:39:29.074Z,99.90
2022-08-11T13:41:59.604Z,99.90
2022-08-11T13:44:30.394Z,99.90
2022-08-11T13:47:08.776Z,99.90
2022-08-11T13:49:39.815Z,99.90
2022-08-11T13:52:13.624Z,99.90
2022-08-11T13:54:42.684Z,99.90
2022-08-11T13:58:06.562Z,99.90
2022-08-11T14:00:12.900Z,99.90
2022-08-11T14:02:52.988Z,99.90
2022-08-11T14:05:28.208Z,99.90
2022-08-11T14:08:37.808Z,99.90
2022-08-11T14:12:23.465Z,99.90
2022-08-11T14:14:13.154Z,99.90
2022-08-11T14:16:44.002Z,99.90
2022-08-11T14:19:15.216Z,99.90
2022-08-11T14:22:07.078Z,99.90
2022-08-11T14:24:49.648Z,99.90
2022-08-11T14:28:32.098Z,99.90
2022-08-11T14:30:26.841Z,99.90
2022-08-11T14:32:56.059Z,99.90
2022-08-11T14:35:27.573Z,99.90
2022-08-11T14:37:57.222Z,99.90
2022-08-11T14:40:43.577Z,99.90
2022-08-11T14:44:13.367Z,99.90
2022-08-11T14:46:35.532Z,99.90
2022-08-11T14:49:04.542Z,99.90
2022-08-11T14:51:34.180Z,99.90
2022-08-11T14:54:20.216Z,99.90
2022-08-11T14:56:47.917Z,99.90
2022-08-11T14:59:15.455Z,99.90
2022-08-11T15:02:01.917Z,99.90
2022-08-11T15:04:36.122Z,99.90
2022-08-11T15:07:04.399Z,99.90
2022-08-11T15:12:33.795Z,99.90
2022-08-11T15:15:21.387Z,99.90
2022-08-11T15:17:50.855Z,99.90
2022-08-11T15:20:38.493Z,99.90
2022-08-11T15:23:24.697Z,99.90
2022-08-11T15:26:05.647Z,99.90
2022-08-11T15:28:57.676Z,99.90
2022-08-11T15:31:27.813Z,99.90
2022-08-11T15:34:19.983Z,99.90
2022-08-11T15:37:08.205Z,99.90
2022-08-11T15:40:05.105Z,99.90
2022-08-11T15:42:55.281Z,99.90
2022-08-11T15:45:43.720Z,99.90
2022-08-11T15:48:14.651Z,99.90
2022-08-11T15:50:48.256Z,99.90
2022-08-11T15:53:32.739Z,99.90
2022-08-11T15:56:01.088Z,99.90
2022-08-11T15:59:33.721Z,99.90
2022-08-11T16:02:00.416Z,99.90
2022-08-11T16:04:30.195Z,99.90
2022-08-11T16:07:14.621Z,99.90
2022-08-11T16:09:55.007Z,99.90
2022-08-11T16:12:30.491Z,99.90
2022-08-11T16:15:23.784Z,99.90
2022-08-11T16:17:55.995Z,99.90
2022-08-11T16:20:26.130Z,99.90
2022-08-11T16:23:01.839Z,99.90
2022-08-11T16:27:01.428Z,99.90
2022-08-11T16:28:22.144Z,99.90
2022-08-11T16:30:50.981Z,99.90
2022-08-11T16:33:49.087Z,99.90
2022-08-11T16:36:29.783Z,99.90
2022-08-11T16:38:59.480Z,99.90
2022-08-11T16:41:49.359Z,99.90
2022-08-11T16:44:38.326Z,99.90
2022-08-11T16:47:08.549Z,99.90
2022-08-11T16:49:52.229Z,99.90
2022-08-11T16:52:22.780Z,99.90
2022-08-11T16:54:50.178Z,99.90
2022-08-11T16:57:45.860Z,99.90
2022-08-11T17:00:16.370Z,99.90
2022-08-11T17:03:11.019Z,99.90
2022-08-11T17:06:10.972Z,99.90
2022-08-11T17:09:04.972Z,99.90
2022-08-11T17:12:09.052Z,99.90
2022-08-11T17:14:48.389Z,99.90
2022-08-11T17:17:20.704Z,99.90
2022-08-11T17:20:38.813Z,99.90
2022-08-11T17:23:00.071Z,99.90
2022-08-11T17:25:28.470Z,99.90
2022-08-11T17:27:56.993Z,99.90
2022-08-11T17:30:45.462Z,99.90
2022-08-11T17:33:34.464Z,99.90
2022-08-11T17:36:02.689Z,99.90
2022-08-11T17:38:30.525Z,99.90
2022-08-11T17:41:22.980Z,99.90
2022-08-11T17:44:10.271Z,99.90
2022-08-11T17:47:03.664Z,99.90
2022-08-11T17:49:37.683Z,99.90
2022-08-11T17:52:25.556Z,99.90
2022-08-11T17:55:13.930Z,99.90
2022-08-11T17:58:01.369Z,99.90
2022-08-11T18:00:29.788Z,99.90
2022-08-11T18:03:18.986Z,99.90
2022-08-11T18:05:49.273Z,99.90
2022-08-11T18:08:37.829Z,99.90
2022-08-11T18:12:06.255Z,99.90
2022-08-11T18:14:34.115Z,99.90
2022-08-11T18:17:20.271Z,99.90
2022-08-11T18:20:08.451Z,99.90
2022-08-11T18:23:01.585Z,99.90
2022-08-11T18:25:57.654Z,99.90
2022-08-11T18:28:47.898Z,99.90
2022-08-11T18:31:35.616Z,99.90
2022-08-11T18:34:25.850Z,99.90
2022-08-11T18:37:27.201Z,99.90
2022-08-11T18:40:41.262Z,99.90
2022-08-11T18:43:31.432Z,99.90
2022-08-11T18:46:23.592Z,99.90
2022-08-11T18:49:19.304Z,99.90
2022-08-11T18:52:09.166Z,99.90
2022-08-11T18:54:58.537Z,99.90
2022-08-11T18:57:49.870Z,99.90
2022-08-11T19:00:40.370Z,99.90
2022-08-11T19:03:28.284Z,99.90
2022-08-11T19:06:39.813Z,99.90
2022-08-11T19:09:26.400Z,99.90
2022-08-11T19:12:15.527Z,99.90
2022-08-11T19:15:03.294Z,99.90
2022-08-11T19:17:51.029Z,99.90
2022-08-11T19:20:40.545Z,99.90
2022-08-11T19:23:28.616Z,99.90
2022-08-11T19:26:17.226Z,99.90
2022-08-11T19:29:06.625Z,99.90
2022-08-11T19:31:53.676Z,99.90
2022-08-11T19:34:41.967Z,99.90
2022-08-11T19:37:29.234Z,99.90
2022-08-11T19:40:20.560Z,99.90
2022-08-11T19:43:23.682Z,99.90
2022-08-11T19:46:15.909Z,99.90
2022-08-11T19:49:03.958Z,99.90
2022-08-11T19:51:54.215Z,99.90
2022-08-11T19:54:45.461Z,99.90
2022-08-11T19:57:39.308Z,99.90
2022-08-11T20:00:33.397Z,99.90
2022-08-11T20:03:22.295Z,99.90
2022-08-11T20:06:09.511Z,99.90
2022-08-11T20:08:59.890Z,99.90
2022-08-11T20:11:50.886Z,99.90
2022-08-11T20:14:39.543Z,99.90
2022-08-11T20:17:30.057Z,99.90
2022-08-11T20:20:18.101Z,99.90
2022-08-11T20:23:08.198Z,99.90
2022-08-11T20:26:03.437Z,99.90
2022-08-11T20:28:55.553Z,99.90
2022-08-11T20:31:42.172Z,99.90
2022-08-11T20:34:29.993Z,99.90
2022-08-11T20:37:20.148Z,99.90
2022-08-11T20:40:08.662Z,99.90
2022-08-11T20:42:55.610Z,99.90
2022-08-11T20:45:52.118Z,99.90
2022-08-11T20:48:45.626Z,99.90
2022-08-11T20:51:38.581Z,99.90
2022-08-11T20:54:38.313Z,99.90
2022-08-11T21:00:39.269Z,99.90
2022-08-11T21:03:35.509Z,99.90
2022-08-11T21:06:26.251Z,99.90
2022-08-11T21:09:20.289Z,99.90
2022-08-11T21:12:07.758Z,99.90
2022-08-11T21:14:59.705Z,99.90
2022-08-11T21:18:00.695Z,99.90
2022-08-11T21:20:55.764Z,31.20
2022-08-11T21:23:43.218Z,55.30
2022-08-11T21:26:32.663Z,64.60
2022-08-11T21:29:19.377Z,8.50
2022-08-11T21:32:06.730Z,57.30
2022-08-11T21:34:53.993Z,93.70
2022-08-11T21:37:41.494Z,50.60
2022-08-11T21:40:29.187Z,49.50
2022-08-11T21:43:16.943Z,78.00
2022-08-11T21:46:02.850Z,41.90
2022-08-11T21:48:50.359Z,35.40
2022-08-11T21:51:36.126Z,28.20
2022-08-11T21:54:22.936Z,27.60
2022-08-11T21:57:09.340Z,31.90
2022-08-11T22:00:11.704Z,28.00
2022-08-11T22:02:58.370Z,73.50
2022-08-11T22:05:49.384Z,57.50
2022-08-11T22:08:35.637Z,68.30
2022-08-11T22:11:32.203Z,90.10
2022-08-11T22:14:23.422Z,91.80
2022-08-11T22:17:09.997Z,91.70
2022-08-11T22:19:57.850Z,68.80
2022-08-11T22:22:52.345Z,99.90
2022-08-11T22:25:53.695Z,99.90
2022-08-11T22:28:41.909Z,99.90
2022-08-11T22:31:29.857Z,99.90
2022-08-11T22:34:15.956Z,99.90
2022-08-11T22:37:03.182Z,99.90
2022-08-11T22:40:01.603Z,1.00
2022-08-11T22:42:51.327Z,33.70
2022-08-11T22:45:38.827Z,99.90
2022-08-11T22:48:26.309Z,99.90
2022-08-11T22:51:13.447Z,99.90
2022-08-11T22:53:59.716Z,99.90
2022-08-11T22:56:48.393Z,99.90
2022-08-11T22:59:36.178Z,99.90
2022-08-11T23:02:24.474Z,1.00
2022-08-11T23:05:10.476Z,99.90
2022-08-11T23:07:57.829Z,99.90
2022-08-11T23:10:44.795Z,99.90
2022-08-11T23:13:31.853Z,99.90
2022-08-11T23:16:18.811Z,99.90
2022-08-11T23:19:06.849Z,99.90
2022-08-11T23:21:53.577Z,82.00
2022-08-11T23:24:40.457Z,99.90
2022-08-11T23:27:27.925Z,99.90
2022-08-11T23:30:19.244Z,99.90
2022-08-11T23:33:09.915Z,1.00
2022-08-11T23:36:03.367Z,99.90
2022-08-11T23:38:51.816Z,99.90
2022-08-11T23:41:38.049Z,99.90
2022-08-11T23:44:25.550Z,95.20
2022-08-11T23:47:13.984Z,99.90
2022-08-11T23:50:00.991Z,99.90
2022-08-11T23:52:47.865Z,99.90
2022-08-11T23:55:33.831Z,99.90
2022-08-11T23:58:20.175Z,99.90
